Terminal Aerodrome Forecast
Issued by NWS

Home | Current Version | Previous Version | Text Only | Print | Product List | Glossary On
Versions: 1 2 3 4 5 6 7 8 9 10 11 12 13 14 15 16
000
FTUS41 KBTV 311720
TAFSLK
TAF
KSLK 311720Z 3118/0118 27010G19KT P6SM SCT050
     FM312000 29010KT P6SM BKN045
     FM010600 VRB03KT 1SM BR FEW003
     FM011200 VRB03KT P6SM FEW250=

USA.gov is the U.S. government's official web portal to all federal, state and local government web resources and services.